Time;durP1;ratioP1;P1;durP2;ratioP2;P2;SDS_P1;SDS_P2;PMS_P1;PMS_P2;Temp;Humidity;BMP_temperature;BMP_pressure;BME280_temperature;BME280_humidity;BME280_pressure;Samples;Min_cycle;Max_cycle;Signal;HPM_P1;HPM_P2
2023/07/05 00:01:24;;;;;;;12.93;9.57;;;17.00;99.90;;;;;;2615026;54;20360;-69
2023/07/05 00:07:11;;;;;;;15.97;9.30;;;17.00;99.90;;;;;;2614762;39;20757;-70
2023/07/05 00:16:30;;;;;;;7.90;7.13;;;17.20;99.90;;;;;;2614909;54;20522;-68
2023/07/05 00:22:19;;;;;;;7.90;7.20;;;17.20;99.90;;;;;;2614836;54;20404;-70
2023/07/05 00:28:07;;;;;;;8.90;7.20;;;17.10;99.90;;;;;;2613801;54;20395;-70
2023/07/05 00:33:55;;;;;;;7.70;6.33;;;17.00;99.90;;;;;;2614753;54;20131;-69
2023/07/05 00:36:58;;;;;;;8.00;5.80;;;16.90;99.90;;;;;;2614550;39;20907;-70
2023/07/05 00:39:23;;;;;;;12.07;5.30;;;16.90;99.90;;;;;;2613759;54;20245;-70
2023/07/05 00:45:11;;;;;;;10.00;6.00;;;16.80;99.90;;;;;;2614499;54;20154;-69
2023/07/05 00:51:03;;;;;;;8.73;6.63;;;16.60;99.90;;;;;;2613622;46;20174;-69
2023/07/05 00:56:59;;;;;;;7.97;5.20;;;16.40;99.90;;;;;;2615022;46;20530;-68
2023/07/05 01:02:52;;;;;;;5.00;4.07;;;16.30;99.90;;;;;;2614544;54;20410;-73
2023/07/05 01:08:40;;;;;;;6.33;4.77;;;16.40;99.90;;;;;;2614541;54;20370;-73
2023/07/05 01:11:55;;;;;;;8.83;5.10;;;16.40;99.90;;;;;;2614861;54;20942;-73
2023/07/05 01:14:31;;;;;;;8.37;5.07;;;16.40;99.90;;;;;;2614905;54;20165;-73
2023/07/05 01:27:00;;;;;;;4.93;4.20;;;16.40;99.90;;;;;;2614508;54;20495;-74
2023/07/05 01:39:16;;;;;;;5.17;4.67;;;16.60;99.90;;;;;;2615078;54;20544;-74
2023/07/05 01:45:04;;;;;;;6.30;4.50;;;16.80;99.90;;;;;;2615743;54;20129;-74
2023/07/05 01:57:29;;;;;;;6.53;4.70;;;16.80;99.90;;;;;;2615284;54;20415;-75
2023/07/05 02:03:21;;;;;;;5.43;4.27;;;16.70;99.90;;;;;;2615429;54;20492;-75
2023/07/05 02:09:08;;;;;;;5.20;3.97;;;16.80;99.90;;;;;;2615491;54;20403;-74
2023/07/05 02:11:56;;;;;;;6.60;4.20;;;16.80;99.90;;;;;;2610932;54;20511;-75
2023/07/05 02:14:22;;;;;;;4.73;4.33;;;16.90;99.90;;;;;;2614094;54;20271;-74
2023/07/05 02:20:10;;;;;;;8.60;4.30;;;17.00;99.90;;;;;;2615292;54;20130;-74
2023/07/05 02:32:12;;;;;;;4.40;4.00;;;17.00;99.90;;;;;;2613886;46;20406;-73
2023/07/05 02:38:00;;;;;;;4.50;4.10;;;17.00;99.90;;;;;;2615349;54;20157;-75
2023/07/05 02:43:47;;;;;;;5.23;3.50;;;17.20;99.90;;;;;;2614893;54;20150;-75
2023/07/05 02:49:35;;;;;;;3.10;2.80;;;17.00;99.90;;;;;;2615065;54;20125;-76
2023/07/05 02:55:22;;;;;;;4.20;3.03;;;16.80;99.90;;;;;;2615091;54;20139;-76
2023/07/05 03:01:10;;;;;;;5.00;3.20;;;16.80;99.90;;;;;;2615313;39;20572;-69
2023/07/05 03:06:58;;;;;;;4.27;3.30;;;16.70;99.90;;;;;;2615334;54;20159;-69
2023/07/05 03:16:27;;;;;;;3.50;3.20;;;16.70;99.90;;;;;;2615076;54;20443;-68
2023/07/05 03:22:14;;;;;;;4.00;3.50;;;16.80;99.90;;;;;;2613704;54;20426;-69
2023/07/05 03:28:03;;;;;;;6.50;4.30;;;16.80;99.90;;;;;;2614291;54;20284;-68
2023/07/05 03:33:53;;;;;;;5.17;4.10;;;16.80;99.90;;;;;;2612711;54;20950;-69
2023/07/05 03:39:40;;;;;;;6.23;3.87;;;17.00;99.90;;;;;;2612487;54;20383;-68
2023/07/05 03:45:28;;;;;;;4.40;3.60;;;17.00;99.90;;;;;;2613541;54;20195;-69
2023/07/05 03:51:18;;;;;;;3.60;3.20;;;16.90;99.90;;;;;;2614490;54;20134;-69
2023/07/05 03:57:07;;;;;;;3.13;2.90;;;16.60;99.90;;;;;;2615213;54;20419;-68
2023/07/05 04:02:55;;;;;;;4.20;3.90;;;16.20;99.90;;;;;;2613494;54;20403;-68
2023/07/05 04:08:43;;;;;;;4.80;4.40;;;15.80;99.90;;;;;;2612356;54;20143;-69
2023/07/05 04:15:08;;;;;;;4.50;4.10;;;15.50;99.90;;;;;;2613573;39;20900;-67
2023/07/05 04:17:49;;;;;;;4.60;4.30;;;15.30;99.90;;;;;;2613133;47;20416;-70
2023/07/05 04:23:39;;;;;;;5.40;5.00;;;15.20;99.90;;;;;;2613546;54;20399;-68
2023/07/05 04:29:26;;;;;;;4.10;3.70;;;14.90;99.90;;;;;;2613348;54;20394;-68
2023/07/05 04:35:14;;;;;;;4.33;3.00;;;14.70;99.90;;;;;;2613886;54;20535;-69
2023/07/05 04:41:02;;;;;;;6.73;5.43;;;14.60;99.90;;;;;;2615488;39;20476;-69
2023/07/05 04:46:50;;;;;;;3.30;3.03;;;14.60;99.90;;;;;;2614710;54;20170;-69
2023/07/05 04:52:38;;;;;;;4.83;3.20;;;14.70;99.90;;;;;;2612795;54;20166;-69
2023/07/05 04:58:26;;;;;;;11.20;3.87;;;14.50;99.90;;;;;;2613251;54;20403;-69
2023/07/05 05:04:13;;;;;;;3.63;3.33;;;14.70;99.90;;;;;;2614511;54;20378;-69
2023/07/05 05:10:02;;;;;;;5.10;3.93;;;14.60;99.90;;;;;;2616026;39;20579;-68
2023/07/05 05:13:16;;;;;;;4.40;3.83;;;14.80;99.90;;;;;;2613256;54;20431;-68
2023/07/05 05:15:42;;;;;;;5.10;3.73;;;15.10;99.90;;;;;;2615550;54;20416;-68
2023/07/05 05:21:30;;;;;;;5.83;4.47;;;15.40;99.90;;;;;;2615860;54;20130;-68
2023/07/05 05:27:18;;;;;;;5.83;4.17;;;15.80;99.90;;;;;;2614745;54;20123;-68
2023/07/05 05:33:06;;;;;;;7.50;5.60;;;16.00;99.90;;;;;;2614330;54;20222;-69
2023/07/05 05:38:53;;;;;;;4.10;3.47;;;15.80;99.90;;;;;;2613850;54;20379;-69
2023/07/05 05:44:41;;;;;;;6.20;5.40;;;15.70;99.90;;;;;;2614324;54;20178;-69
2023/07/05 05:50:30;;;;;;;4.67;4.27;;;15.50;99.90;;;;;;2615281;54;20657;-69
2023/07/05 05:56:19;;;;;;;6.03;4.67;;;16.30;99.90;;;;;;2615450;39;20792;-69
2023/07/05 06:02:08;;;;;;;5.87;5.33;;;15.70;99.90;;;;;;2615470;54;20443;-70
2023/07/05 06:05:19;;;;;;;5.70;5.30;;;15.50;99.90;;;;;;2613982;54;20531;-70
2023/07/05 06:07:45;;;;;;;5.53;5.13;;;15.60;99.90;;;;;;2608663;54;20489;-69
2023/07/05 06:17:48;;;;;;;18.10;7.70;;;15.50;99.90;;;;;;2611812;54;21113;-68
2023/07/05 06:23:35;;;;;;;6.47;5.87;;;15.50;99.90;;;;;;2613419;46;20583;-68
2023/07/05 06:29:23;;;;;;;5.63;5.23;;;15.40;99.90;;;;;;2611920;54;20155;-69
2023/07/05 06:35:11;;;;;;;7.90;7.17;;;15.50;99.90;;;;;;2613061;54;20705;-69
2023/07/05 06:40:59;;;;;;;6.40;5.80;;;15.40;99.90;;;;;;2612343;54;21209;-69
2023/07/05 06:46:46;;;;;;;8.13;7.33;;;15.40;99.90;;;;;;2613316;54;20142;-70
2023/07/05 06:52:34;;;;;;;6.40;5.93;;;16.20;99.90;;;;;;2613878;54;20151;-70
2023/07/05 06:58:22;;;;;;;6.37;5.80;;;15.60;99.90;;;;;;2614550;54;20137;-70
2023/07/05 07:04:10;;;;;;;5.70;5.17;;;15.90;99.90;;;;;;2614189;54;20391;-72
2023/07/05 07:10:00;;;;;;;6.30;5.67;;;16.20;99.90;;;;;;2613230;54;20151;-71
2023/07/05 07:13:17;;;;;;;5.87;5.13;;;15.90;99.90;;;;;;2612226;54;20423;-71
2023/07/05 07:15:43;;;;;;;5.57;5.17;;;15.90;99.90;;;;;;2613660;54;20434;-71
2023/07/05 07:21:31;;;;;;;6.50;6.00;;;15.70;99.90;;;;;;2614295;54;20682;-70
2023/07/05 07:27:19;;;;;;;6.10;5.63;;;15.70;99.90;;;;;;2612854;54;20394;-73
2023/07/05 07:33:06;;;;;;;7.10;6.50;;;15.90;99.90;;;;;;2614508;54;20134;-70
2023/07/05 07:38:55;;;;;;;6.43;5.83;;;15.80;99.90;;;;;;2613835;54;20134;-71
2023/07/05 07:44:43;;;;;;;5.60;5.13;;;15.50;99.90;;;;;;2612318;54;20377;-71
2023/07/05 07:50:31;;;;;;;5.20;4.80;;;15.00;99.90;;;;;;2614271;39;20562;-70
2023/07/05 07:56:21;;;;;;;5.20;4.80;;;14.30;99.90;;;;;;2613790;46;20366;-71
2023/07/05 08:02:13;;;;;;;3.70;3.50;;;14.00;99.90;;;;;;2612399;54;20455;-72
2023/07/05 08:08:01;;;;;;;4.17;3.70;;;14.30;99.90;;;;;;2614176;54;20397;-71
2023/07/05 08:17:48;;;;;;;4.73;4.30;;;15.10;99.90;;;;;;2614095;54;20427;-72
2023/07/05 08:23:36;;;;;;;7.00;5.10;;;15.90;99.90;;;;;;2612650;54;20394;-70
2023/07/05 08:29:24;;;;;;;4.73;4.20;;;16.00;99.90;;;;;;2613503;54;21229;-71
2023/07/05 08:35:11;;;;;;;8.90;4.40;;;15.60;99.90;;;;;;2612456;54;20378;-70
2023/07/05 08:47:40;;;;;;;6.30;5.70;;;15.20;99.90;;;;;;2612321;54;20914;-71
2023/07/05 08:53:28;;;;;;;6.43;5.10;;;15.20;99.90;;;;;;2613549;54;20418;-70
2023/07/05 08:59:29;;;;;;;5.93;5.53;;;15.20;99.90;;;;;;2614319;46;20512;-70
2023/07/05 09:24:51;;;;;;;5.17;4.97;;;16.10;99.90;;;;;;2613796;54;20487;-71
2023/07/05 09:30:39;;;;;;;7.60;6.90;;;16.60;99.90;;;;;;2612352;54;20375;-71
2023/07/05 09:36:27;;;;;;;7.70;7.10;;;17.80;99.90;;;;;;2613409;39;20574;-71
2023/07/05 09:48:41;;;;;;;8.23;7.63;;;18.00;99.90;;;;;;2612421;54;20401;-70
2023/07/05 09:54:30;;;;;;;8.53;7.80;;;18.80;99.90;;;;;;2613009;39;20820;-71
2023/07/05 10:00:37;;;;;;;7.80;7.27;;;18.20;99.90;;;;;;2612933;54;20912;-71
2023/07/05 10:06:27;;;;;;;8.73;8.13;;;18.30;99.90;;;;;;2614830;54;20424;-72
2023/07/05 10:12:15;;;;;;;7.77;7.30;;;18.40;99.90;;;;;;2613855;39;20866;-71
2023/07/05 10:18:03;;;;;;;8.70;8.10;;;18.30;99.90;;;;;;2612505;54;20126;-71
2023/07/05 10:23:51;;;;;;;9.90;9.20;;;18.70;99.90;;;;;;2612568;54;20146;-71
2023/07/05 10:29:40;;;;;;;10.30;9.70;;;19.10;99.90;;;;;;2614328;39;20565;-71
2023/07/05 10:35:31;;;;;;;9.47;8.90;;;19.90;99.90;;;;;;2611535;54;20376;-70
2023/07/05 10:41:19;;;;;;;11.50;10.03;;;19.30;99.90;;;;;;2615226;54;20622;-71
2023/07/05 10:47:11;;;;;;;11.77;10.73;;;18.90;99.90;;;;;;2614672;54;20165;-71
2023/07/05 10:53:04;;;;;;;10.97;10.13;;;19.20;99.90;;;;;;2614765;54;20411;-70
2023/07/05 11:12:15;;;;;;;11.17;10.50;;;18.80;97.40;;;;;;2609617;54;20391;-75
2023/07/05 11:27:58;;;;;;;8.93;8.43;;;20.70;90.90;;;;;;2613073;39;20509;-74
2023/07/05 11:47:23;;;;;;;10.70;10.00;;;21.50;67.50;;;;;;2610385;54;21195;-75
2023/07/05 11:53:13;;;;;;;12.03;11.47;;;21.30;56.10;;;;;;2607504;54;20134;-74
2023/07/05 11:59:02;;;;;;;13.97;13.07;;;21.50;50.30;;;;;;2608120;39;21675;-74
2023/07/05 12:04:53;;;;;;;11.67;11.10;;;21.30;40.60;;;;;;2612482;54;21017;-74
2023/07/05 12:21:06;;;;;;;11.63;11.10;;;21.60;39.40;;;;;;2611118;54;20447;-73
2023/07/05 12:26:57;;;;;;;13.60;12.67;;;21.90;31.10;;;;;;2611141;46;20422;-75
2023/07/05 12:32:53;;;;;;;11.90;11.20;;;21.70;27.60;;;;;;2614342;54;20399;-73
2023/07/05 12:35:56;;;;;;;13.27;12.57;;;21.20;25.00;;;;;;2613493;47;20414;-73
2023/07/05 12:38:22;;;;;;;13.30;12.30;;;20.80;25.30;;;;;;2612056;54;21033;-74
2023/07/05 12:44:15;;;;;;;14.50;13.67;;;21.70;25.50;;;;;;2610140;54;20134;-73
2023/07/05 12:50:04;;;;;;;12.90;11.80;;;21.90;22.70;;;;;;2613194;54;20419;-74
2023/07/05 13:02:30;;;;;;;13.17;12.57;;;22.10;20.80;;;;;;2613667;54;20424;-75
2023/07/05 13:08:18;;;;;;;13.70;12.97;;;21.00;24.10;;;;;;2613912;54;20399;-75
2023/07/05 13:20:47;;;;;;;13.83;13.03;;;21.90;20.00;;;;;;2613205;54;20508;-75
2023/07/05 13:26:37;;;;;;;12.50;11.80;;;22.00;23.00;;;;;;2613430;54;20435;-74
2023/07/05 13:29:50;;;;;;;13.00;12.30;;;21.50;21.90;;;;;;2613874;46;20425;-74
2023/07/05 13:35:38;;;;;;;13.33;12.10;;;21.00;27.10;;;;;;2613113;54;20932;-74
2023/07/05 13:41:30;;;;;;;14.70;13.20;;;20.30;35.90;;;;;;2614922;39;20491;-75
2023/07/05 13:47:17;;;;;;;12.00;11.27;;;22.00;45.20;;;;;;2612561;54;20446;-75
2023/07/05 13:59:37;;;;;;;12.50;11.60;;;20.90;54.90;;;;;;2609274;31;20805;-75
2023/07/05 14:05:28;;;;;;;12.27;11.77;;;21.10;51.40;;;;;;2608904;54;20130;-75
2023/07/05 14:11:22;;;;;;;13.07;12.33;;;22.20;47.90;;;;;;2611492;46;20415;-74
2023/07/05 14:17:19;;;;;;;13.40;12.70;;;21.40;53.60;;;;;;2611493;54;20387;-76
2023/07/05 14:23:12;;;;;;;13.30;12.30;;;21.20;54.50;;;;;;2607046;54;20910;-74
2023/07/05 14:32:22;;;;;;;11.33;10.83;;;21.60;54.20;;;;;;2611954;54;20404;-74
2023/07/05 14:38:11;;;;;;;11.90;11.30;;;20.20;63.50;;;;;;2612254;54;20202;-74
2023/07/05 14:43:58;;;;;;;11.70;11.07;;;20.10;75.80;;;;;;2611338;54;20436;-72
2023/07/05 14:49:46;;;;;;;13.23;12.40;;;20.40;69.80;;;;;;2614860;54;20158;-74
2023/07/05 14:55:34;;;;;;;12.27;11.27;;;21.60;66.80;;;;;;2614671;54;20680;-73
2023/07/05 15:01:22;;;;;;;11.93;11.13;;;20.00;84.30;;;;;;2611624;39;20530;-73
2023/07/05 15:07:16;;;;;;;11.57;10.43;;;19.70;98.50;;;;;;2611413;54;20242;-72
2023/07/05 15:13:07;;;;;;;10.87;10.27;;;19.70;99.90;;;;;;2614107;46;20398;-73
2023/07/05 15:18:56;;;;;;;11.73;11.13;;;19.60;99.90;;;;;;2611735;54;20400;-74
2023/07/05 15:24:44;;;;;;;11.70;11.00;;;19.70;99.90;;;;;;2610070;54;21018;-74
2023/07/05 15:33:55;;;;;;;12.27;11.63;;;19.60;99.90;;;;;;2610412;54;20410;-73
2023/07/05 15:39:42;;;;;;;11.10;10.50;;;19.50;99.90;;;;;;2609920;46;20179;-73
2023/07/05 15:45:30;;;;;;;11.67;10.70;;;19.50;99.90;;;;;;2611632;39;20971;-73
2023/07/05 15:51:18;;;;;;;12.10;11.50;;;19.60;99.90;;;;;;2614341;54;20698;-74
2023/07/05 15:57:06;;;;;;;12.00;11.30;;;20.00;99.90;;;;;;2612036;54;20158;-74
2023/07/05 16:02:58;;;;;;;12.07;10.97;;;19.30;99.90;;;;;;2610697;54;20130;-72
2023/07/05 16:08:47;;;;;;;11.03;10.50;;;19.10;99.90;;;;;;2614232;39;20907;-73
2023/07/05 16:14:35;;;;;;;11.37;10.77;;;19.10;99.90;;;;;;2610152;54;20403;-72
2023/07/05 16:20:23;;;;;;;11.37;10.70;;;20.50;99.90;;;;;;2611071;54;20269;-73
2023/07/05 16:26:11;;;;;;;12.10;11.50;;;21.40;99.90;;;;;;2611592;39;20626;-74
2023/07/05 16:29:26;;;;;;;11.97;10.97;;;20.00;99.90;;;;;;2609971;47;20408;-73
2023/07/05 16:31:53;;;;;;;11.50;10.90;;;19.50;99.90;;;;;;2609651;54;20234;-73
2023/07/05 16:37:40;;;;;;;11.07;10.37;;;19.20;99.90;;;;;;2611631;54;20435;-72
2023/07/05 16:43:29;;;;;;;11.70;10.90;;;18.20;99.90;;;;;;2610919;54;20130;-74
2023/07/05 16:49:17;;;;;;;11.07;10.10;;;17.60;99.90;;;;;;2610817;54;20508;-74
2023/07/05 16:55:05;;;;;;;12.23;8.87;;;17.40;99.90;;;;;;2610927;54;20158;-75
2023/07/05 17:01:00;;;;;;;9.10;8.33;;;17.20;99.90;;;;;;2609412;54;20424;-74
2023/07/05 17:06:48;;;;;;;9.00;6.30;;;16.80;99.90;;;;;;2610589;54;20419;-74
2023/07/05 17:12:36;;;;;;;6.17;5.67;;;16.60;99.90;;;;;;2611017;54;20625;-73
2023/07/05 17:18:25;;;;;;;4.73;4.20;;;15.70;99.90;;;;;;2611814;39;20524;-74
2023/07/05 17:24:13;;;;;;;5.53;5.13;;;15.40;99.90;;;;;;2610112;54;22208;-74
2023/07/05 17:33:59;;;;;;;7.80;4.50;;;15.20;99.90;;;;;;2611026;54;20427;-74
2023/07/05 17:39:47;;;;;;;5.00;4.60;;;15.10;99.90;;;;;;2610937;54;20432;-75
2023/07/05 17:45:35;;;;;;;6.70;4.83;;;15.10;99.90;;;;;;2610820;54;20262;-74
2023/07/05 17:51:24;;;;;;;4.80;4.40;;;15.10;99.90;;;;;;2610741;54;20403;-75
2023/07/05 17:57:12;;;;;;;7.27;6.67;;;15.30;99.90;;;;;;2610094;54;20427;-74
2023/07/05 18:03:00;;;;;;;5.10;4.70;;;15.50;99.90;;;;;;2610203;54;21130;-74
2023/07/05 18:08:48;;;;;;;6.13;5.53;;;15.50;99.90;;;;;;2613119;54;20150;-76
2023/07/05 18:14:37;;;;;;;3.90;3.33;;;15.40;99.90;;;;;;2613401;54;21252;-75
2023/07/05 18:20:24;;;;;;;4.30;3.90;;;15.30;99.90;;;;;;2614157;54;20408;-75
2023/07/05 18:26:15;;;;;;;4.67;4.27;;;15.30;99.90;;;;;;2614291;54;20123;-75
2023/07/05 18:32:11;;;;;;;5.00;3.83;;;15.30;99.90;;;;;;2612738;54;20950;-75
2023/07/05 18:38:00;;;;;;;4.30;3.90;;;15.20;99.90;;;;;;2613479;54;20169;-75
2023/07/05 18:43:47;;;;;;;4.30;3.90;;;15.20;99.90;;;;;;2613262;54;20520;-75
2023/07/05 18:49:34;;;;;;;10.30;5.10;;;15.40;99.90;;;;;;2611245;54;20293;-74
2023/07/05 18:55:21;;;;;;;4.50;4.17;;;15.50;99.90;;;;;;2611989;54;20546;-75
2023/07/05 19:01:13;;;;;;;4.40;4.10;;;15.40;99.90;;;;;;2611968;54;20148;-75
2023/07/05 19:07:00;;;;;;;4.80;4.43;;;15.50;99.90;;;;;;2609850;54;20434;-74
2023/07/05 19:12:48;;;;;;;4.07;3.77;;;15.60;99.90;;;;;;2612167;54;20134;-74
2023/07/05 19:18:36;;;;;;;4.63;4.23;;;15.50;99.90;;;;;;2614264;54;20126;-74
2023/07/05 19:24:24;;;;;;;4.13;3.83;;;15.70;99.90;;;;;;2613948;54;20411;-74
2023/07/05 19:34:02;;;;;;;4.07;3.80;;;15.40;99.90;;;;;;2611770;54;20988;-74
2023/07/05 19:39:49;;;;;;;3.40;3.17;;;15.40;99.90;;;;;;2611542;54;20406;-74
2023/07/05 19:45:37;;;;;;;4.00;3.67;;;15.40;99.90;;;;;;2611907;54;20162;-73
2023/07/05 19:51:26;;;;;;;6.40;3.70;;;15.50;99.90;;;;;;2614050;54;20134;-72
2023/07/05 19:57:13;;;;;;;4.93;3.47;;;15.60;99.90;;;;;;2614236;54;20451;-73
2023/07/05 20:03:02;;;;;;;9.17;3.90;;;15.70;99.90;;;;;;2614105;54;20142;-74
2023/07/05 20:08:52;;;;;;;5.77;4.23;;;15.80;99.90;;;;;;2613124;54;20416;-72
2023/07/05 20:14:40;;;;;;;4.30;3.90;;;15.80;99.90;;;;;;2613699;54;20399;-73
2023/07/05 20:20:29;;;;;;;3.97;3.50;;;15.80;99.90;;;;;;2613347;54;20399;-72
2023/07/05 20:26:17;;;;;;;5.17;4.23;;;15.70;99.90;;;;;;2614054;54;20480;-71
2023/07/05 20:29:29;;;;;;;5.37;4.87;;;15.70;99.90;;;;;;2613245;54;20440;-72
2023/07/05 20:31:54;;;;;;;4.60;4.20;;;15.70;99.90;;;;;;2613373;54;20443;-72
2023/07/05 20:37:42;;;;;;;5.60;4.77;;;15.60;99.90;;;;;;2613478;54;20150;-73
2023/07/05 20:43:29;;;;;;;4.57;4.27;;;15.60;99.90;;;;;;2613467;54;20174;-72
2023/07/05 20:49:17;;;;;;;4.67;4.27;;;15.50;99.90;;;;;;2613412;54;20138;-72
2023/07/05 20:55:06;;;;;;;5.13;4.10;;;15.50;99.90;;;;;;2613556;54;20147;-73
2023/07/05 21:00:57;;;;;;;4.13;3.73;;;15.60;99.90;;;;;;2614157;54;20384;-73
2023/07/05 21:06:45;;;;;;;5.70;4.70;;;15.30;99.90;;;;;;2609164;54;20456;-72
2023/07/05 21:12:33;;;;;;;5.23;4.83;;;15.10;99.90;;;;;;2609194;54;20161;-73
2023/07/05 21:18:21;;;;;;;6.70;4.50;;;15.10;99.90;;;;;;2613670;46;20137;-72
2023/07/05 21:24:10;;;;;;;5.40;4.57;;;15.00;99.90;;;;;;2609730;54;20154;-71
2023/07/05 21:33:57;;;;;;;8.20;5.07;;;14.50;99.90;;;;;;2607991;54;20565;-72
2023/07/05 21:39:45;;;;;;;5.07;4.57;;;14.20;99.90;;;;;;2610960;54;20969;-72
2023/07/05 21:45:36;;;;;;;5.07;4.50;;;14.10;99.90;;;;;;2610728;39;20761;-72
2023/07/05 21:51:24;;;;;;;5.60;5.00;;;14.10;99.90;;;;;;2612785;54;20399;-72
2023/07/05 21:57:13;;;;;;;5.33;4.63;;;14.10;99.90;;;;;;2612032;54;20187;-73
2023/07/05 22:03:10;;;;;;;6.30;5.70;;;14.40;99.90;;;;;;2611411;54;20914;-73
2023/07/05 22:08:57;;;;;;;7.20;5.73;;;14.30;99.90;;;;;;2612605;54;20450;-72
2023/07/05 22:14:45;;;;;;;8.87;4.63;;;14.10;99.90;;;;;;2611918;54;20161;-73
2023/07/05 22:23:54;;;;;;;9.70;5.70;;;13.80;99.90;;;;;;2609527;54;20686;-72
2023/07/05 22:36:24;;;;;;;4.80;4.20;;;13.80;99.90;;;;;;2610004;54;21729;-73
2023/07/05 22:42:12;;;;;;;21.97;6.47;;;13.60;99.90;;;;;;2611454;54;20138;-73
2023/07/05 22:48:00;;;;;;;8.80;5.40;;;13.50;99.90;;;;;;2611434;39;20509;-72
2023/07/05 22:53:48;;;;;;;8.10;4.73;;;13.40;99.90;;;;;;2611014;54;20152;-73
2023/07/05 22:59:36;;;;;;;8.17;5.67;;;13.20;99.90;;;;;;2609461;54;20419;-72
2023/07/05 23:05:26;;;;;;;6.67;4.70;;;13.20;99.90;;;;;;2610113;54;20169;-72
2023/07/05 23:11:14;;;;;;;9.43;4.60;;;13.20;99.90;;;;;;2610559;54;20484;-73
2023/07/05 23:17:03;;;;;;;5.40;4.67;;;13.10;99.90;;;;;;2610866;54;20130;-73
2023/07/05 23:22:50;;;;;;;13.10;4.40;;;13.20;99.90;;;;;;2610706;54;21571;-73
2023/07/05 23:28:38;;;;;;;6.00;4.07;;;13.30;99.90;;;;;;2610745;54;21832;-72
2023/07/05 23:34:27;;;;;;;6.17;4.80;;;13.30;99.90;;;;;;2610916;54;20979;-73
2023/07/05 23:40:14;;;;;;;4.60;3.97;;;13.30;99.90;;;;;;2614472;54;20410;-72
2023/07/05 23:46:02;;;;;;;9.40;4.97;;;13.50;99.90;;;;;;2613895;39;20536;-73
2023/07/05 23:51:52;;;;;;;7.17;4.23;;;13.50;99.90;;;;;;2613305;54;20153;-72
2023/07/05 23:57:40;;;;;;;4.30;3.90;;;13.50;99.90;;;;;;2611340;54;20524;-72
